Euro Snow — VQGH9 — position and weather

sailwx.info

Track history (hours):
 
Tides and Currents Weather Stations Pressure Air Temp Water Temp Dewpoint Dewpoint Depression Visibility Wind Speed Wind Dir Waves Ship Positions

Euro Snow

Last reported at 2016-Sep-29 23:32 UTC. Time now 2016-Oct-01 01:31 UTC.
Position N 45°56' W 004°26'.

Length 133 m; draft 7.4 m.

Type: Cargo ship. MMSI: 235613000.

Date/timePositionNaut miles runAvg speedWind from/ knotsBaromVisibWave heightAir tempDewpointWater temp
2016-Sep-29 23:32N 45°56' W 004°26'2713.4
2016-Sep-29 21:32N 46°21' W 004°40'1313.0
2016-Sep-29 20:33N 46°33' W 004°47'1413.3
2016-Sep-29 19:30N 46°46' W 004°55'3913.4
2016-Sep-29 16:33N 47°23' W 005°15'1513.8
2016-Sep-29 15:29N 47°37' W 005°22'1413.1
2016-Sep-29 14:24N 47°50' W 005°29'1412.4
2016-Sep-29 13:17N 48°03' W 005°36'5311.2
2016-Sep-29 08:33N 48°56' W 005°35'1313.3
2016-Sep-29 07:33N 49°03' W 005°18'8111.2
2016-Sep-29 00:20N 49°44' W 003°30'3613.0
2016-Sep-28 21:33N 49°60' W 002°40'2211.1
2016-Sep-28 19:33N 50°06' W 002°07'29 9.6
2016-Sep-28 16:33N 50°14' W 001°23'1211.6
2016-Sep-28 15:34N 50°18' W 001°06'4113.8
2016-Sep-28 12:33N 50°29' W 000°03'5112.8
2016-Sep-28 08:33N 50°52' E 001°09'8316.6
2016-Sep-28 03:31N 51°53' E 002°39'1414.6
2016-Sep-28 02:33N 52°01' E 002°57'1515.1
2016-Sep-28 01:33N 52°03' E 003°22'2613.2
2016-Sep-27 23:33N 51°59' E 004°04'2 0.5
2016-Sep-27 19:32N 51°57' E 004°04'14 2.8
2016-Sep-27 14:33N 51°53' E 004°25'0 0.0
2016-Sep-27 13:33N 51°53' E 004°25'0 0.0
2016-Sep-27 10:33N 51°53' E 004°25'1 0.1
2016-Sep-27 00:33N 51°54' E 004°26'1 0.2
2016-Sep-26 20:34N 51°54' E 004°25'1211.5
2016-Sep-26 19:33N 51°58' E 004°07'2 0.6
2016-Sep-26 15:31N 51°57' E 004°04'0 0.0
2016-Sep-26 13:32N 51°57' E 004°04'0 0.0
2016-Sep-26 11:33N 51°57' E 004°04'0 0.0
2016-Sep-26 08:33N 51°57' E 004°04'67 8.4
2016-Sep-26 00:33N 51°34' E 002°22'5217.3
2016-Sep-25 21:33N 50°54' E 001°30'6816.7
2016-Sep-25 17:30N 50°20' W 000°03'10018.5
2016-Sep-25 12:05N 49°52' W 002°33'917.1
2016-Sep-25 11:33N 49°49' W 002°47'1716.9
2016-Sep-25 10:34N 49°42' W 003°10'9816.4
2016-Sep-25 04:33N 48°52' W 005°20'14814.5
2016-Sep-24 18:21N 46°27' W 004°37'1417.1
2016-Sep-24 17:33N 46°14' W 004°30'1916.7
2016-Sep-24 16:23N 45°56' W 004°21'  
2016-Sep-22 00:33N 49°57' W 002°56'7414.7
2016-Sep-21 19:33N 50°18' W 001°06'5618.7
2016-Sep-21 16:33N 50°33' E 000°19'12117.0
2016-Sep-21 09:24N 51°55' E 002°42'5714.7
2016-Sep-21 05:33N 51°55' E 004°14'7 3.7
2016-Sep-21 03:32N 51°53' E 004°26'0 0.0
2016-Sep-21 02:32N 51°53' E 004°26'1 0.1
2016-Sep-20 17:33N 51°53' E 004°25'0 0.0
2016-Sep-20 14:33N 51°53' E 004°25'0 0.0
2016-Sep-20 13:30N 51°53' E 004°25'12 4.0
2016-Sep-20 10:33N 51°58' E 004°08'3 1.5
2016-Sep-20 08:33N 51°57' E 004°04'0 0.0
2016-Sep-20 07:31N 51°57' E 004°04'0 0.0
2016-Sep-20 06:33N 51°57' E 004°04'0 0.0
2016-Sep-20 02:31N 51°57' E 004°04'0 0.0
2016-Sep-19 23:33N 51°57' E 004°04'  
Track history (hours):
 
Tides and Currents Weather Stations Pressure Air Temp Water Temp Dewpoint Dewpoint Depression Visibility Wind Speed Wind Dir Waves Ship Positions

Euro Snow

Last reported at 2016-Sep-29 23:32 UTC. Time now 2016-Oct-01 01:31 UTC.
Position N 45°56' W 004°26'.

Length 133 m; draft 7.4 m.

Type: Cargo ship. MMSI: 235613000.

Date/timePositionNaut miles runAvg speedWind from/ knotsBaromVisibWave heightAir tempDewpointWater temp
2016-Sep-29 23:32N 45°56' W 004°26'2713.4
2016-Sep-29 21:32N 46°21' W 004°40'1313.0
2016-Sep-29 20:33N 46°33' W 004°47'1413.3
2016-Sep-29 19:30N 46°46' W 004°55'3913.4
2016-Sep-29 16:33N 47°23' W 005°15'1513.8
2016-Sep-29 15:29N 47°37' W 005°22'1413.1
2016-Sep-29 14:24N 47°50' W 005°29'1412.4
2016-Sep-29 13:17N 48°03' W 005°36'5311.2
2016-Sep-29 08:33N 48°56' W 005°35'1313.3
2016-Sep-29 07:33N 49°03' W 005°18'8111.2
2016-Sep-29 00:20N 49°44' W 003°30'3613.0
2016-Sep-28 21:33N 49°60' W 002°40'2211.1
2016-Sep-28 19:33N 50°06' W 002°07'29 9.6
2016-Sep-28 16:33N 50°14' W 001°23'1211.6
2016-Sep-28 15:34N 50°18' W 001°06'4113.8
2016-Sep-28 12:33N 50°29' W 000°03'5112.8
2016-Sep-28 08:33N 50°52' E 001°09'8316.6
2016-Sep-28 03:31N 51°53' E 002°39'1414.6
2016-Sep-28 02:33N 52°01' E 002°57'1515.1
2016-Sep-28 01:33N 52°03' E 003°22'2613.2
2016-Sep-27 23:33N 51°59' E 004°04'2 0.5
2016-Sep-27 19:32N 51°57' E 004°04'14 2.8
2016-Sep-27 14:33N 51°53' E 004°25'0 0.0
2016-Sep-27 13:33N 51°53' E 004°25'0 0.0
2016-Sep-27 10:33N 51°53' E 004°25'1 0.1
2016-Sep-27 00:33N 51°54' E 004°26'1 0.2
2016-Sep-26 20:34N 51°54' E 004°25'1211.5
2016-Sep-26 19:33N 51°58' E 004°07'2 0.6
2016-Sep-26 15:31N 51°57' E 004°04'0 0.0
2016-Sep-26 13:32N 51°57' E 004°04'0 0.0
2016-Sep-26 11:33N 51°57' E 004°04'0 0.0
2016-Sep-26 08:33N 51°57' E 004°04'67 8.4
2016-Sep-26 00:33N 51°34' E 002°22'5217.3
2016-Sep-25 21:33N 50°54' E 001°30'6816.7
2016-Sep-25 17:30N 50°20' W 000°03'10018.5
2016-Sep-25 12:05N 49°52' W 002°33'917.1
2016-Sep-25 11:33N 49°49' W 002°47'1716.9
2016-Sep-25 10:34N 49°42' W 003°10'9816.4
2016-Sep-25 04:33N 48°52' W 005°20'14814.5
2016-Sep-24 18:21N 46°27' W 004°37'1417.1
2016-Sep-24 17:33N 46°14' W 004°30'1916.7
2016-Sep-24 16:23N 45°56' W 004°21'  
2016-Sep-22 00:33N 49°57' W 002°56'7414.7
2016-Sep-21 19:33N 50°18' W 001°06'5618.7
2016-Sep-21 16:33N 50°33' E 000°19'12117.0
2016-Sep-21 09:24N 51°55' E 002°42'5714.7
2016-Sep-21 05:33N 51°55' E 004°14'7 3.7
2016-Sep-21 03:32N 51°53' E 004°26'0 0.0
2016-Sep-21 02:32N 51°53' E 004°26'1 0.1
2016-Sep-20 17:33N 51°53' E 004°25'0 0.0
2016-Sep-20 14:33N 51°53' E 004°25'0 0.0
2016-Sep-20 13:30N 51°53' E 004°25'12 4.0
2016-Sep-20 10:33N 51°58' E 004°08'3 1.5
2016-Sep-20 08:33N 51°57' E 004°04'0 0.0
2016-Sep-20 07:31N 51°57' E 004°04'0 0.0
2016-Sep-20 06:33N 51°57' E 004°04'0 0.0
2016-Sep-20 02:31N 51°57' E 004°04'0 0.0
2016-Sep-19 23:33N 51°57' E 004°04'  

Dump ship's entire track history